Time;durP1;ratioP1;P1;durP2;ratioP2;P2;SDS_P1;SDS_P2;PMS_P1;PMS_P2;Temp;Humidity;BMP_temperature;BMP_pressure;BME280_temperature;BME280_humidity;BME280_pressure;Samples;Min_cycle;Max_cycle;Signal;HPM_P1;HPM_P2
2022/05/19 00:01:01;;;;;;;;;4.75;4.75;;;;;26.57;41.66;101289.22;5065318;28;45292;-46
2022/05/19 00:03:27;;;;;;;;;5.50;4.50;;;;;26.58;42.47;101291.75;5065912;28;45534;-46
2022/05/19 00:05:52;;;;;;;;;5.25;5.25;;;;;26.61;41.83;101276.94;5073340;28;46097;-47
2022/05/19 00:08:18;;;;;;;;;8.33;6.67;;;;;26.64;42.31;101271.13;5065617;28;45442;-46
2022/05/19 00:10:43;;;;;;;;;7.00;5.00;;;;;26.68;41.61;101274.38;5064580;28;62655;-46
2022/05/19 00:13:09;;;;;;;;;9.00;6.50;;;;;26.68;42.25;101267.03;5065286;28;45289;-46
2022/05/19 00:15:34;;;;;;;;;7.67;7.67;;;;;26.68;42.22;101268.91;5066091;28;46143;-46
2022/05/19 00:17:59;;;;;;;;;7.00;6.33;;;;;26.67;42.05;101261.75;5064107;28;45456;-47
2022/05/19 00:20:24;;;;;;;;;6.25;5.00;;;;;26.66;42.26;101260.03;5062580;28;59794;-47
2022/05/19 00:22:50;;;;;;;;;7.00;7.00;;;;;26.65;41.79;101250.16;5057842;28;64018;-47
2022/05/19 00:25:15;;;;;;;;;8.00;5.67;;;;;26.64;42.45;101248.47;5066964;28;68520;-46
2022/05/19 00:27:40;;;;;;;;;6.00;5.33;;;;;26.63;42.25;101246.75;5067729;28;63799;-46
2022/05/19 00:30:06;;;;;;;;;7.67;6.67;;;;;26.61;42.41;101248.78;5068388;28;60595;-46
2022/05/19 00:32:32;;;;;;;;;6.00;6.00;;;;;26.59;41.84;101246.25;5060113;28;45393;-46
2022/05/19 00:34:57;;;;;;;;;9.67;8.33;;;;;26.56;41.99;101241.97;5059987;28;64442;-46
2022/05/19 00:37:22;;;;;;;;;8.00;8.00;;;;;26.52;42.44;101229.72;5061825;28;45401;-46
2022/05/19 00:39:48;;;;;;;;;6.00;6.00;;;;;26.49;42.52;101232.78;5062507;28;59529;-48
2022/05/19 00:44:59;;;;;;;;;8.00;8.00;;;;;26.46;42.67;101224.94;5060859;28;45324;-45
2022/05/19 00:47:25;;;;;;;;;5.67;5.67;;;;;26.44;43.13;101220.69;5065438;28;45453;-48
2022/05/19 00:49:51;;;;;;;;;7.67;7.67;;;;;26.39;42.98;101216.59;5062391;28;58788;-47
2022/05/19 00:52:25;;;;;;;;;9.00;9.00;;;;;26.36;43.04;101213.34;5047427;28;45393;-50
2022/05/19 00:54:56;;;;;;;;;6.33;6.33;;;;;26.33;43.17;101208.25;5070232;28;46379;-47
2022/05/19 00:57:25;;;;;;;;;6.33;6.33;;;;;26.30;43.94;101198.53;5046128;28;45356;-46
2022/05/19 00:59:55;;;;;;;;;8.00;8.00;;;;;26.26;43.46;101197.19;5063109;28;45575;-46
2022/05/19 01:02:24;;;;;;;;;6.33;6.33;;;;;26.24;43.46;101201.94;5062080;28;45390;-46
2022/05/19 01:04:55;;;;;;;;;6.33;6.33;;;;;26.23;44.29;101198.38;5060003;28;45484;-46
2022/05/19 01:07:27;;;;;;;;;6.33;5.00;;;;;26.20;44.25;101193.25;5065794;28;45544;-47
2022/05/19 01:09:55;;;;;;;;;7.33;6.33;;;;;26.17;44.43;101190.88;5063378;28;45314;-48
2022/05/19 01:12:21;;;;;;;;;8.00;8.00;;;;;26.15;44.31;101192.94;5058425;28;61985;-46
2022/05/19 01:14:46;;;;;;;;;8.33;8.00;;;;;26.13;44.39;101186.78;5047014;28;46233;-47
2022/05/19 01:17:12;;;;;;;;;7.67;7.67;;;;;26.13;44.93;101191.41;5072156;28;64815;-46
2022/05/19 01:19:51;;;;;;;;;8.67;6.67;;;;;26.12;44.01;101184.25;5067004;28;60247;-47
2022/05/19 01:22:29;;;;;;;;;9.00;7.00;;;;;26.10;44.86;101187.13;5056479;28;45275;-47
2022/05/19 01:25:05;;;;;;;;;9.67;8.67;;;;;26.07;44.70;101193.78;5063557;28;45325;-47
2022/05/19 01:27:31;;;;;;;;;8.00;8.00;;;;;26.07;44.29;101193.78;5068714;28;46782;-49
2022/05/19 01:29:56;;;;;;;;;10.67;9.00;;;;;26.05;44.25;101186.78;5066935;28;45552;-46
2022/05/19 01:32:27;;;;;;;;;8.00;7.67;;;;;26.01;44.10;101190.81;5062139;28;59500;-47
2022/05/19 01:34:53;;;;;;;;;8.33;8.33;;;;;25.97;44.51;101192.19;5063312;27;45520;-47
2022/05/19 01:37:19;;;;;;;;;11.33;9.00;;;;;25.92;43.55;101188.09;5065299;28;45555;-48
2022/05/19 01:39:49;;;;;;;;;11.33;9.33;;;;;25.91;44.21;101188.28;5057732;28;48525;-45
2022/05/19 01:42:22;;;;;;;;;8.00;7.33;;;;;25.89;44.28;101188.44;5066581;28;45440;-47
2022/05/19 01:45:19;;;;;;;;;13.33;12.00;;;;;25.89;44.44;101180.28;5046415;28;45346;-46
2022/05/19 01:47:53;;;;;;;;;10.00;10.00;;;;;25.86;44.64;101190.66;5045758;28;45265;-46
2022/05/19 01:50:33;;;;;;;;;10.33;10.00;;;;;25.84;44.68;101179.94;5041684;28;45451;-46
2022/05/19 01:53:01;;;;;;;;;11.67;10.00;;;;;25.84;44.33;101184.50;5064786;28;45197;-46
2022/05/19 01:55:48;;;;;;;;;9.67;9.33;;;;;25.84;44.86;101179.06;5041155;28;45363;-46
2022/05/19 01:58:41;;;;;;;;;12.33;9.67;;;;;25.86;44.83;101185.19;5061080;28;45300;-46
2022/05/19 02:01:08;;;;;;;;;13.00;10.33;;;;;25.86;44.95;101185.19;5063159;28;45356;-48
2022/05/19 02:03:55;;;;;;;;;9.00;7.67;;;;;25.86;44.82;101179.75;5059042;28;46262;-47
2022/05/19 02:06:38;;;;;;;;;12.67;9.67;;;;;25.85;45.42;101187.09;5064165;28;45629;-48
2022/05/19 02:09:07;;;;;;;;;10.33;9.33;;;;;25.84;44.84;101185.38;5066859;28;45430;-46
2022/05/19 02:11:40;;;;;;;;;11.33;11.33;;;;;25.83;45.58;101183.66;5059422;28;45285;-47
2022/05/19 02:14:10;;;;;;;;;10.67;10.33;;;;;25.82;45.44;101183.84;5064889;28;45437;-46
2022/05/19 02:16:36;;;;;;;;;15.67;10.33;;;;;25.81;45.71;101182.97;5042965;28;45671;-46
2022/05/19 02:19:01;;;;;;;;;9.33;9.00;;;;;25.80;45.79;101181.28;5059712;28;45910;-48
2022/05/19 02:21:27;;;;;;;;;14.00;11.00;;;;;25.80;45.83;101178.56;5059385;28;55137;-49
2022/05/19 02:23:55;;;;;;;;;13.33;12.33;;;;;25.79;46.03;101185.03;5063452;28;45539;-49
2022/05/19 02:26:21;;;;;;;;;11.33;10.33;;;;;25.78;45.68;101177.88;5042470;28;45393;-45
2022/05/19 02:28:53;;;;;;;;;10.00;8.33;;;;;25.78;45.82;101179.75;5064743;28;59922;-46
2022/05/19 02:31:19;;;;;;;;;13.00;11.00;;;;;25.77;46.37;101178.88;5053485;28;45404;-45
2022/05/19 02:33:44;;;;;;;;;14.00;11.00;;;;;25.77;46.81;101178.88;5059695;28;46727;-48
2022/05/19 02:36:10;;;;;;;;;14.33;12.00;;;;;25.77;46.05;101181.59;5058409;28;65541;-47
2022/05/19 02:38:36;;;;;;;;;12.67;11.67;;;;;25.76;46.31;101182.63;5062382;28;45849;-47
2022/05/19 02:41:02;;;;;;;;;13.00;12.00;;;;;25.75;47.04;101176.31;5064193;28;45626;-46
2022/05/19 02:43:27;;;;;;;;;13.67;12.67;;;;;25.74;46.92;101182.78;5059967;28;50883;-49
2022/05/19 02:45:53;;;;;;;;;15.67;12.67;;;;;25.74;47.20;101187.41;5061366;28;45644;-46
2022/05/19 02:48:19;;;;;;;;;14.67;12.00;;;;;25.74;47.30;101188.22;5067980;28;45462;-46
2022/05/19 02:50:46;;;;;;;;;10.67;8.67;;;;;25.74;47.56;101188.22;5066712;28;45576;-48
2022/05/19 02:53:12;;;;;;;;;11.33;11.33;;;;;25.76;46.97;101191.66;5063577;28;45387;-46
2022/05/19 02:55:38;;;;;;;;;13.00;11.67;;;;;25.74;47.55;101188.22;5063330;28;45549;-46
2022/05/19 02:58:04;;;;;;;;;15.33;13.67;;;;;25.75;47.15;101180.94;5066742;28;45509;-47
2022/05/19 03:00:29;;;;;;;;;14.67;14.67;;;;;25.76;47.26;101188.06;5066328;28;45388;-45
2022/05/19 03:02:59;;;;;;;;;15.00;13.00;;;;;25.75;47.62;101183.66;5061927;28;55858;-46
2022/05/19 03:05:28;;;;;;;;;12.33;12.00;;;;;25.74;48.06;101190.13;5067883;28;46004;-46
2022/05/19 03:07:53;;;;;;;;;12.67;11.00;;;;;25.72;48.15;101189.41;5062726;28;45382;-47
2022/05/19 03:10:19;;;;;;;;;17.33;14.00;;;;;25.70;48.36;101186.88;5066352;28;45421;-47
2022/05/19 03:12:45;;;;;;;;;15.00;13.33;;;;;25.68;48.08;101186.19;5066653;28;54968;-46
2022/05/19 03:15:11;;;;;;;;;14.00;14.00;;;;;25.67;47.91;101178.19;5065670;28;46140;-45
2022/05/19 03:17:37;;;;;;;;;14.33;14.00;;;;;25.65;48.48;101185.69;5065777;28;45406;-46
2022/05/19 03:20:04;;;;;;;;;12.33;11.00;;;;;25.65;48.75;101188.41;5062117;28;45221;-48
2022/05/19 03:22:29;;;;;;;;;12.67;11.67;;;;;25.65;48.63;101182.94;5068686;28;45589;-46
2022/05/19 03:24:55;;;;;;;;;14.67;14.67;;;;;25.65;48.59;101185.69;5054670;28;62708;-46
2022/05/19 03:27:20;;;;;;;;;13.00;11.67;;;;;25.65;48.95;101188.41;5062138;28;61938;-46
2022/05/19 03:29:47;;;;;;;;;14.67;14.67;;;;;25.65;49.00;101189.25;5056934;28;45359;-45
2022/05/19 03:32:12;;;;;;;;;14.00;12.33;;;;;25.65;48.79;101182.94;5056204;28;45438;-47
2022/05/19 03:34:38;;;;;;;;;17.00;15.67;;;;;25.66;49.20;101184.66;5060103;28;64197;-46
2022/05/19 03:37:06;;;;;;;;;12.00;12.00;;;;;25.66;48.98;101192.84;5057802;28;62812;-47
2022/05/19 03:39:32;;;;;;;;;12.33;12.33;;;;;25.64;48.95;101187.53;5042953;28;45333;-46
2022/05/19 03:41:57;;;;;;;;;11.67;11.67;;;;;25.63;48.97;101185.84;5061603;28;45498;-46
2022/05/19 03:44:23;;;;;;;;;13.00;11.67;;;;;25.63;49.02;101184.97;5056888;28;46045;-46
2022/05/19 03:46:48;;;;;;;;;18.33;15.00;;;;;25.61;49.22;101176.97;5057281;28;65657;-45
2022/05/19 03:49:13;;;;;;;;;13.33;13.33;;;;;25.59;49.52;101185.31;5067496;28;56488;-47
2022/05/19 03:51:40;;;;;;;;;12.00;12.00;;;;;25.58;49.27;101190.94;5069432;28;61199;-48
2022/05/19 03:54:06;;;;;;;;;15.33;14.00;;;;;25.56;49.66;101180.19;5046547;28;46150;-45
2022/05/19 03:56:32;;;;;;;;;11.67;11.67;;;;;25.54;49.79;101179.53;5059164;28;45370;-46
2022/05/19 03:58:57;;;;;;;;;13.00;12.33;;;;;25.54;49.44;101181.38;5071915;28;45327;-51
2022/05/19 04:01:23;;;;;;;;;16.33;14.67;;;;;25.52;50.19;101181.53;5061426;28;45348;-49
2022/05/19 04:03:49;;;;;;;;;16.00;16.00;;;;;25.52;49.56;101188.88;5072305;28;46128;-50
2022/05/19 04:06:15;;;;;;;;;16.33;13.67;;;;;25.50;49.67;101191.78;5067134;28;45398;-48
2022/05/19 04:08:40;;;;;;;;;16.67;14.00;;;;;25.50;49.93;101190.91;5072339;28;45342;-49
2022/05/19 04:11:06;;;;;;;;;14.33;13.33;;;;;25.49;49.86;101181.00;5060526;28;52135;-47
2022/05/19 04:13:31;;;;;;;;;14.67;14.33;;;;;25.47;49.82;101181.19;5059864;28;46399;-48
2022/05/19 04:15:57;;;;;;;;;15.67;13.00;;;;;25.47;49.92;101183.91;5049053;28;45308;-47
2022/05/19 04:18:23;;;;;;;;;14.33;12.33;;;;;25.46;50.08;101184.09;5072457;28;45652;-46
2022/05/19 04:20:48;;;;;;;;;14.67;11.67;;;;;25.45;49.90;101187.81;5061044;28;45332;-49
2022/05/19 04:23:14;;;;;;;;;14.33;14.00;;;;;25.46;50.26;101190.41;5059622;28;53908;-49
2022/05/19 04:25:41;;;;;;;;;15.00;12.50;;;;;25.46;50.02;101193.13;5060670;28;45300;-49
2022/05/19 04:28:07;;;;;;;;;12.33;12.33;;;;;25.47;49.95;101188.50;5062420;28;45311;-51
2022/05/19 04:30:33;;;;;;;;;13.33;12.33;;;;;25.46;50.38;101193.13;5059118;28;62433;-48
2022/05/19 04:32:58;;;;;;;;;13.33;13.33;;;;;25.46;50.33;101189.53;5071816;28;63102;-47
2022/05/19 04:35:24;;;;;;;;;17.00;13.67;;;;;25.45;49.97;101195.97;5060060;28;63271;-47
2022/05/19 04:37:49;;;;;;;;;14.00;13.00;;;;;25.46;49.77;101194.97;5062322;28;46714;-49
2022/05/19 04:40:16;;;;;;;;;12.00;11.67;;;;;25.45;50.32;101196.84;5059782;28;45240;-46
2022/05/19 04:42:42;;;;;;;;;13.33;13.33;;;;;25.47;49.87;101205.69;5064965;28;46297;-48
2022/05/19 04:45:09;;;;;;;;;15.00;12.67;;;;;25.48;49.94;101229.19;5070457;27;45299;-46
2022/05/19 04:47:34;;;;;;;;;10.67;9.67;;;;;25.51;50.26;101233.44;5060237;28;45695;-47
2022/05/19 04:50:00;;;;;;;;;12.33;11.33;;;;;25.52;49.66;101227.84;5066630;28;51450;-46
2022/05/19 04:52:25;;;;;;;;;12.00;11.33;;;;;25.53;50.15;101245.88;5066833;28;45860;-47
2022/05/19 04:54:50;;;;;;;;;12.00;12.00;;;;;25.55;49.55;101243.84;5056238;28;63453;-47
2022/05/19 04:57:16;;;;;;;;;14.33;14.00;;;;;25.57;49.93;101249.13;5059089;28;45369;-48
2022/05/19 04:59:41;;;;;;;;;14.33;14.00;;;;;25.55;50.23;101265.66;5064118;28;60576;-46
2022/05/19 05:02:08;;;;;;;;;16.67;14.00;;;;;25.52;50.55;101244.16;5067165;28;51315;-46
2022/05/19 05:04:34;;;;;;;;;13.33;13.33;;;;;25.52;50.62;101256.94;5056125;28;45420;-45
2022/05/19 05:07:00;;;;;;;;;15.00;13.67;;;;;25.51;50.20;101252.50;5063920;28;45647;-48
2022/05/19 05:09:25;;;;;;;;;14.67;12.00;;;;;25.49;50.31;101260.84;5046987;28;45369;-47
2022/05/19 05:11:51;;;;;;;;;14.67;13.00;;;;;25.48;50.57;101256.41;5063595;28;67115;-48
2022/05/19 05:14:17;;;;;;;;;14.67;13.00;;;;;25.45;50.89;101253.16;5061544;28;57809;-49
2022/05/19 05:16:45;;;;;;;;;15.67;12.67;;;;;25.45;50.53;101256.75;5055981;28;45411;-47
2022/05/19 05:19:11;;;;;;;;;12.33;12.33;;;;;25.46;50.62;101261.19;5065940;28;45497;-46
2022/05/19 05:21:36;;;;;;;;;14.33;14.33;;;;;25.45;51.10;101245.84;5064931;28;68770;-45
2022/05/19 05:24:01;;;;;;;;;13.00;13.00;;;;;25.45;51.25;101259.47;5052069;28;65354;-48
2022/05/19 05:26:27;;;;;;;;;15.33;14.00;;;;;25.46;51.27;101271.22;5051501;28;45763;-46
2022/05/19 05:28:52;;;;;;;;;16.33;13.00;;;;;25.41;50.95;101312.56;5045103;28;45524;-46
2022/05/19 05:31:18;;;;;;;;;16.33;14.00;;;;;25.32;51.03;101330.66;5059584;28;50376;-46
2022/05/19 05:33:43;;;;;;;;;11.67;10.33;;;;;25.29;51.57;101324.69;5053833;28;64612;-47
2022/05/19 05:36:08;;;;;;;;;12.33;12.33;;;;;25.24;51.74;101303.41;5050772;28;58852;-46
2022/05/19 05:38:34;;;;;;;;;14.33;13.33;;;;;25.22;51.42;101317.16;5057599;28;62826;-45
2022/05/19 05:41:02;;;;;;;;;11.00;9.67;;;;;25.20;51.48;101321.91;5057603;28;46138;-47
2022/05/19 05:43:27;;;;;;;;;18.00;14.67;;;;;25.13;51.74;101309.94;5063267;28;45657;-49
2022/05/19 05:45:53;;;;;;;;;12.00;12.00;;;;;25.12;51.84;101302.78;5055106;28;45409;-46
2022/05/19 05:48:19;;;;;;;;;13.67;13.00;;;;;25.11;52.03;101306.56;5060594;28;64174;-48
2022/05/19 05:50:44;;;;;;;;;12.67;12.67;;;;;25.10;52.06;101315.72;5053686;28;46522;-49
2022/05/19 05:53:10;;;;;;;;;12.67;12.67;;;;;25.12;52.53;101313.69;5061597;28;45379;-47
2022/05/19 05:55:39;;;;;;;;;11.00;11.00;;;;;25.13;52.02;101304.50;5055116;28;45457;-45
2022/05/19 05:58:09;;;;;;;;;15.33;11.00;;;;;25.15;52.16;101309.78;5065017;27;45352;-45
2022/05/19 06:00:34;;;;;;;;;17.00;14.00;;;;;25.18;52.06;101304.03;5062922;28;45638;-48
2022/05/19 06:03:00;;;;;;;;;13.67;13.33;;;;;25.19;52.27;101303.03;5060525;28;45396;-46
2022/05/19 06:05:25;;;;;;;;;11.00;10.00;;;;;25.21;52.05;101304.59;5050643;28;61745;-47
2022/05/19 06:07:51;;;;;;;;;14.67;11.67;;;;;25.22;52.35;101295.38;5060056;28;45367;-48
2022/05/19 06:10:17;;;;;;;;;12.33;11.33;;;;;25.23;52.22;101294.38;5065548;28;57701;-47
2022/05/19 06:12:42;;;;;;;;;14.00;12.33;;;;;25.25;52.40;101299.66;5058604;27;45410;-46
2022/05/19 06:15:10;;;;;;;;;12.00;11.67;;;;;25.25;52.21;101305.97;5069624;27;45770;-46
2022/05/19 06:17:35;;;;;;;;;12.33;12.33;;;;;25.26;52.66;101298.63;5048809;28;45441;-48
2022/05/19 06:20:01;;;;;;;;;15.33;15.33;;;;;25.27;52.39;101295.75;5059355;28;47272;-46
2022/05/19 06:22:26;;;;;;;;;16.00;16.00;;;;;25.27;52.75;101305.78;5063787;28;58479;-45
2022/05/19 06:24:51;;;;;;;;;15.00;13.00;;;;;25.27;52.85;101300.34;5054580;28;45363;-46
2022/05/19 06:27:17;;;;;;;;;17.00;14.00;;;;;25.29;52.33;101305.63;5056630;28;60463;-47
2022/05/19 06:29:43;;;;;;;;;17.00;14.33;;;;;25.31;52.65;101307.19;5059207;28;61264;-46
2022/05/19 06:32:09;;;;;;;;;16.00;16.00;;;;;25.30;52.39;101299.19;5059092;28;45212;-47
2022/05/19 06:34:35;;;;;;;;;17.00;15.33;;;;;25.27;52.69;101306.63;5057391;28;45340;-46
2022/05/19 06:37:02;;;;;;;;;14.33;14.33;;;;;25.25;52.82;101302.38;5061277;28;50009;-51
2022/05/19 06:39:28;;;;;;;;;14.67;12.33;;;;;25.23;52.57;101304.41;5059726;28;45458;-50
2022/05/19 06:42:02;;;;;;;;;14.00;13.67;;;;;25.25;52.99;101300.53;5059316;28;45752;-48
2022/05/19 06:44:37;;;;;;;;;16.33;14.67;;;;;25.29;52.80;101308.34;5063778;28;45544;-52
2022/05/19 06:47:09;;;;;;;;;16.67;16.67;;;;;25.32;52.68;101311.59;5054747;28;45596;-47
2022/05/19 06:49:35;;;;;;;;;16.67;14.67;;;;;25.33;52.82;101307.00;5054155;28;45309;-48
2022/05/19 06:52:01;;;;;;;;;17.33;14.67;;;;;25.34;52.54;101320.44;5048461;28;45429;-49
2022/05/19 06:54:26;;;;;;;;;16.67;15.00;;;;;25.34;52.49;101316.88;5047933;28;61683;-50
2022/05/19 06:56:51;;;;;;;;;15.67;14.00;;;;;25.38;52.57;101323.75;5056610;28;61134;-51
2022/05/19 06:59:17;;;;;;;;;19.00;17.00;;;;;25.40;52.87;101322.56;5057533;28;45898;-51
2022/05/19 07:01:44;;;;;;;;;17.33;16.67;;;;;25.44;52.67;101331.28;5070765;28;45667;-50
2022/05/19 07:04:09;;;;;;;;;11.33;11.33;;;;;25.46;52.57;101336.56;5068422;28;45330;-50
2022/05/19 07:06:35;;;;;;;;;15.67;15.00;;;;;25.47;52.18;101330.94;5057495;28;62891;-51
2022/05/19 07:09:00;;;;;;;;;16.33;16.00;;;;;25.50;52.47;101333.34;5057757;28;45375;-50
2022/05/19 07:11:26;;;;;;;;;18.00;17.67;;;;;25.55;52.86;101335.56;5057740;28;65046;-53
2022/05/19 07:13:56;;;;;;;;;16.00;14.00;;;;;25.63;52.35;101332.03;5048536;28;45280;-52
2022/05/19 07:16:22;;;;;;;;;15.33;15.33;;;;;25.69;52.80;101334.97;5051937;28;45531;-51
2022/05/19 07:18:48;;;;;;;;;18.67;17.67;;;;;25.73;52.33;101340.94;5045622;28;45899;-49
2022/05/19 07:21:14;;;;;;;;;19.33;16.00;;;;;25.76;52.19;101340.59;5053999;28;57814;-50
2022/05/19 07:23:40;;;;;;;;;14.67;13.00;;;;;25.76;52.19;101341.47;5056408;28;45465;-49
2022/05/19 07:26:06;;;;;;;;;17.33;15.00;;;;;25.78;51.58;101338.56;5056384;28;45285;-51
2022/05/19 07:28:31;;;;;;;;;21.33;17.00;;;;;25.98;51.85;101327.41;5055181;28;46218;-51
2022/05/19 07:30:57;;;;;;;;;17.00;15.33;;;;;26.25;51.05;101321.72;5048285;28;45684;-52
2022/05/19 07:33:22;;;;;;;;;17.00;17.00;;;;;26.58;50.52;101324.50;5065987;28;45332;-50
2022/05/19 07:35:50;;;;;;;;;16.67;16.00;;;;;26.93;50.25;101335.25;5059970;28;62285;-49
2022/05/19 07:38:16;;;;;;;;;15.00;13.67;;;;;27.09;49.67;101328.91;5052059;28;47156;-46
2022/05/19 07:40:43;;;;;;;;;16.67;16.67;;;;;27.13;49.10;101330.28;5054138;28;45447;-50
2022/05/19 07:45:52;;;;;;;;;17.67;15.67;;;;;27.37;49.14;101347.66;5056681;28;45343;-50
2022/05/19 07:48:18;;;;;;;;;16.50;15.50;;;;;27.57;48.57;101345.38;5060290;28;45727;-48
2022/05/19 07:50:43;;;;;;;;;18.33;17.67;;;;;27.87;48.58;101351.94;5061217;28;65439;-47
2022/05/19 07:53:08;;;;;;;;;14.00;14.00;;;;;28.23;48.12;101353.31;5062601;28;61960;-48
2022/05/19 07:55:34;;;;;;;;;22.33;15.67;;;;;28.66;47.43;101352.91;5064705;28;45509;-47
2022/05/19 07:58:00;;;;;;;;;16.67;16.67;;;;;29.14;46.55;101367.19;5060172;28;48526;-48
2022/05/19 08:00:26;;;;;;;;;18.00;18.00;;;;;29.67;45.49;101380.88;5065792;28;45453;-51
2022/05/19 08:02:51;;;;;;;;;18.33;15.67;;;;;29.95;44.66;101379.34;5052801;28;47624;-46
2022/05/19 08:05:16;;;;;;;;;18.00;14.33;;;;;29.76;44.28;101391.72;5059180;28;61131;-49
2022/05/19 08:07:42;;;;;;;;;19.00;16.33;;;;;29.53;44.03;101388.03;5050789;28;67064;-46
2022/05/19 08:10:26;;;;;;;;;18.00;15.00;;;;;29.41;44.53;101400.47;5060845;28;56230;-48
2022/05/19 08:15:42;;;;;;;;;14.33;13.33;;;;;29.78;43.91;101414.31;5058348;28;45603;-46
2022/05/19 08:18:10;;;;;;;;;13.00;13.00;;;;;30.34;43.25;101419.28;5052129;28;46154;-47
2022/05/19 08:20:39;;;;;;;;;13.33;12.33;;;;;30.46;42.31;101430.59;5060825;28;45443;-47
2022/05/19 08:23:05;;;;;;;;;13.67;12.33;;;;;30.80;41.73;101446.41;5055206;28;45422;-45
2022/05/19 08:25:31;;;;;;;;;13.67;13.67;;;;;31.00;41.77;101443.00;5052955;28;46188;-46
2022/05/19 08:27:57;;;;;;;;;10.33;10.33;;;;;31.48;40.32;101461.63;5056869;28;66595;-50
2022/05/19 08:30:22;;;;;;;;;12.67;12.00;;;;;31.92;38.64;101460.44;5072259;28;45477;-47
2022/05/19 08:32:48;;;;;;;;;10.00;9.00;;;;;31.81;38.28;101463.75;5064067;28;59915;-45
2022/05/19 08:35:14;;;;;;;;;10.25;9.75;;;;;31.55;38.47;101481.75;5058411;28;45505;-50
2022/05/19 08:37:39;;;;;;;;;9.67;9.67;;;;;31.44;38.57;101488.63;5063746;28;46199;-49
2022/05/19 08:40:05;;;;;;;;;11.67;11.00;;;;;31.27;38.39;101482.56;5060216;28;45564;-50
2022/05/19 08:42:36;;;;;;;;;10.75;10.00;;;;;31.55;38.53;101484.50;5068351;28;45370;-49
2022/05/19 08:45:04;;;;;;;;;8.50;8.50;;;;;32.28;36.98;101494.31;5058847;28;45324;-49
2022/05/19 08:47:34;;;;;;;;;11.50;8.75;;;;;32.87;37.57;101486.47;5058185;28;47146;-47
2022/05/19 08:50:19;;;;;;;;;9.00;8.00;;;;;32.51;36.47;101482.13;5040848;28;45621;-50
2022/05/19 08:52:47;;;;;;;;;8.25;8.25;;;;;31.62;37.39;101496.41;5054574;28;45346;-46
2022/05/19 08:55:14;;;;;;;;;7.75;7.75;;;;;31.50;37.72;101492.50;5036748;28;45363;-52
2022/05/19 08:58:08;;;;;;;;;8.33;7.00;;;;;31.11;37.30;101497.44;5058182;28;47364;-49
2022/05/19 09:00:42;;;;;;;;;9.67;8.00;;;;;31.27;36.79;101504.56;5061134;27;45497;-49
2022/05/19 09:03:20;;;;;;;;;4.75;4.75;;;;;31.12;37.21;101510.13;5037971;28;45694;-49
2022/05/19 09:06:15;;;;;;;;;5.50;5.50;;;;;30.81;36.75;101521.41;5063947;28;45699;-47
2022/05/19 09:08:42;;;;;;;;;7.00;6.50;;;;;30.35;36.94;101531.56;5046903;28;46252;-47
2022/05/19 09:11:18;;;;;;;;;6.00;4.50;;;;;30.09;37.76;101545.75;5058739;28;45455;-47
2022/05/19 09:14:03;;;;;;;;;7.50;7.50;;;;;29.90;37.65;101560.84;5056837;28;45447;-46
2022/05/19 09:16:31;;;;;;;;;12.00;11.00;;;;;29.79;38.20;101583.19;5045555;28;45308;-49
2022/05/19 09:19:24;;;;;;;;;14.00;11.25;;;;;29.46;37.99;101587.06;5043112;28;47108;-47
2022/05/19 09:22:00;;;;;;;;;14.33;13.67;;;;;29.13;38.17;101587.28;5041654;28;45505;-49
2022/05/19 09:24:25;;;;;;;;;13.33;13.00;;;;;29.14;38.27;101583.50;5040725;28;45452;-49
2022/05/19 09:26:54;;;;;;;;;13.33;12.33;;;;;29.34;38.47;101585.81;5058167;28;62651;-47
2022/05/19 09:29:35;;;;;;;;;14.00;13.00;;;;;30.28;37.86;101580.00;5058325;28;45360;-47
2022/05/19 09:32:31;;;;;;;;;15.00;14.00;;;;;31.47;36.43;101570.69;5071259;28;45316;-47
2022/05/19 09:35:11;;;;;;;;;15.00;14.00;;;;;32.29;33.78;101584.06;5059771;28;45552;-47
2022/05/19 09:37:42;;;;;;;;;10.00;9.33;;;;;32.15;34.38;101578.44;5055970;28;45578;-47
2022/05/19 09:40:21;;;;;;;;;10.33;9.00;;;;;31.89;33.76;101592.88;5059208;28;47078;-48
2022/05/19 09:43:03;;;;;;;;;8.00;8.00;;;;;32.30;34.00;101607.78;5041382;28;45412;-50
2022/05/19 09:45:29;;;;;;;;;9.25;9.25;;;;;32.82;32.29;101606.38;5063230;28;45455;-51
2022/05/19 09:48:01;;;;;;;;;9.75;8.75;;;;;33.10;32.49;101613.69;5057059;28;45573;-48
2022/05/19 09:50:32;;;;;;;;;7.25;7.00;;;;;33.47;31.68;101605.09;5062040;28;46838;-49
2022/05/19 09:53:03;;;;;;;;;8.00;6.50;;;;;33.66;31.23;101617.19;5036366;28;45536;-48
2022/05/19 09:55:28;;;;;;;;;5.00;5.00;;;;;33.73;30.23;101618.06;5059426;28;45690;-51
2022/05/19 09:58:00;;;;;;;;;6.00;6.00;;;;;33.43;30.35;101617.63;5061844;28;45343;-48
2022/05/19 10:00:35;;;;;;;;;6.00;6.00;;;;;32.94;31.07;101612.13;5059235;28;47000;-49
2022/05/19 10:03:02;;;;;;;;;4.25;4.00;;;;;32.63;32.00;101618.13;5057106;28;45730;-46
2022/05/19 10:05:31;;;;;;;;;1.75;1.75;;;;;31.96;31.06;101623.16;5050418;28;45418;-55
2022/05/19 10:08:05;;;;;;;;;3.25;2.00;;;;;30.65;32.30;101615.78;5062147;28;45273;-57
2022/05/19 10:10:33;;;;;;;;;1.00;1.00;;;;;29.75;33.63;101610.16;5053668;28;46297;-56
2022/05/19 10:13:07;;;;;;;;;2.00;2.00;;;;;29.26;34.56;101607.75;5059979;28;45630;-56
2022/05/19 10:15:57;;;;;;;;;2.00;2.00;;;;;28.83;34.73;101622.66;5059189;28;45288;-56
2022/05/19 10:18:38;;;;;;;;;1.75;1.75;;;;;28.39;35.11;101637.69;5048286;28;45707;-55
2022/05/19 10:21:15;;;;;;;;;2.00;2.00;;;;;28.13;35.25;101642.50;5060659;28;46284;-55
2022/05/19 10:23:58;;;;;;;;;1.50;0.50;;;;;28.07;35.71;101635.84;5061048;28;45462;-54
2022/05/19 10:26:26;;;;;;;;;0.25;0.25;;;;;28.19;36.34;101645.41;5073279;27;45299;-54
2022/05/19 10:31:49;;;;;;;;;1.75;1.00;;;;;28.55;36.22;101631.31;5052844;28;45849;-55
2022/05/19 10:34:30;;;;;;;;;1.00;1.00;;;;;28.77;35.70;101642.53;5037964;28;45917;-54
2022/05/19 10:37:20;;;;;;;;;1.50;1.00;;;;;28.78;35.29;101644.25;5060031;28;46463;-54
2022/05/19 10:39:55;;;;;;;;;1.50;1.00;;;;;28.68;35.36;101632.66;5064986;28;45586;-55
2022/05/19 10:42:39;;;;;;;;;0.75;0.75;;;;;28.49;35.42;101626.53;5052046;28;45489;-55
2022/05/19 10:45:17;;;;;;;;;2.25;0.25;;;;;28.31;35.95;101634.94;5057695;28;45377;-55
2022/05/19 10:48:04;;;;;;;;;3.00;0.75;;;;;28.26;35.66;101628.31;5056278;28;45296;-55
2022/05/19 10:50:37;;;;;;;;;0.00;0.00;;;;;28.26;35.96;101644.72;5057467;28;45818;-55
2022/05/19 10:53:27;;;;;;;;;0.75;0.75;;;;;28.25;36.45;101640.25;5046725;28;46361;-55
2022/05/19 10:56:23;;;;;;;;;1.75;0.75;;;;;28.16;35.98;101636.69;5056033;28;45381;-55
2022/05/19 10:59:22;;;;;;;;;1.00;0.00;;;;;27.97;36.36;101636.00;5045382;28;45493;-59
2022/05/19 11:01:59;;;;;;;;;0.00;0.00;;;;;27.93;36.61;101631.91;5059600;28;45877;-53
2022/05/19 11:04:24;;;;;;;;;3.75;2.75;;;;;27.90;36.00;101629.50;5062458;28;45597;-55
2022/05/19 11:06:58;;;;;;;;;0.50;0.50;;;;;27.91;36.37;101636.66;5064502;28;45631;-54
2022/05/19 11:09:49;;;;;;;;;2.25;1.25;;;;;27.99;36.42;101641.28;5067426;28;45522;-55
2022/05/19 11:12:49;;;;;;;;;4.00;0.00;;;;;28.12;35.72;101636.19;5065356;28;45512;-55
2022/05/19 11:15:25;;;;;;;;;0.25;0.25;;;;;28.37;36.10;101642.47;4993511;28;46120;-55
2022/05/19 11:17:50;;;;;;;;;2.25;2.00;;;;;28.56;35.90;101634.88;5063749;28;45414;-54
2022/05/19 11:20:32;;;;;;;;;0.00;0.00;;;;;28.69;35.52;101640.72;5065298;28;45706;-55
2022/05/19 11:23:04;;;;;;;;;0.25;0.25;;;;;28.76;35.36;101639.97;5066208;27;45821;-55
2022/05/19 11:28:38;;;;;;;;;0.25;0.25;;;;;29.00;35.42;101639.88;5061864;28;45855;-54
2022/05/19 11:31:12;;;;;;;;;1.00;1.00;;;;;29.20;35.35;101629.34;5066146;28;45481;-53
2022/05/19 11:33:41;;;;;;;;;1.25;1.25;;;;;29.52;35.10;101619.22;5056445;28;45469;-54
2022/05/19 11:36:18;;;;;;;;;3.00;1.75;;;;;29.90;34.38;101612.94;5065035;28;47021;-54
2022/05/19 11:38:54;;;;;;;;;2.50;1.75;;;;;30.24;34.65;101603.34;5047130;28;45427;-52